createdAt,value
2023-01-31T00:01:32.036Z,99649.84
2023-01-31T00:04:05.238Z,99639.72
2023-01-31T00:06:33.412Z,99647.50
2023-01-31T00:09:01.380Z,99648.53
2023-01-31T00:11:29.525Z,99632.53
2023-01-31T00:13:58.124Z,99632.75
2023-01-31T00:16:25.115Z,99636.81
2023-01-31T00:18:52.177Z,99629.09
2023-01-31T00:21:22.372Z,99605.47
2023-01-31T00:23:49.782Z,99581.34
2023-01-31T00:26:22.486Z,99556.03
2023-01-31T00:28:50.521Z,99532.31
2023-01-31T00:31:19.874Z,99536.47
2023-01-31T00:33:50.349Z,99516.25
2023-01-31T00:36:20.965Z,99537.50
2023-01-31T00:38:52.390Z,99515.38
2023-01-31T00:41:20.943Z,99506.38
2023-01-31T00:43:47.930Z,99499.03
2023-01-31T00:46:14.916Z,99495.38
2023-01-31T00:48:41.644Z,99497.41
2023-01-31T00:51:08.807Z,99502.13
2023-01-31T00:53:35.986Z,99483.50
2023-01-31T00:56:06.391Z,99483.25
2023-01-31T00:58:35.836Z,99480.59
2023-01-31T01:01:13.839Z,99486.34
2023-01-31T01:03:41.961Z,99481.91
2023-01-31T01:06:09.437Z,99485.25
2023-01-31T01:08:37.344Z,99467.25
2023-01-31T01:11:24.505Z,99466.94
2023-01-31T01:13:51.962Z,99472.31
2023-01-31T01:16:23.259Z,99476.38
2023-01-31T01:18:50.597Z,99485.00
2023-01-31T01:21:20.955Z,99468.81
2023-01-31T01:23:48.268Z,99454.56
2023-01-31T01:26:16.326Z,99447.47
2023-01-31T01:28:43.244Z,99452.63
2023-01-31T01:31:11.122Z,99443.00
2023-01-31T01:33:40.700Z,99442.38
2023-01-31T01:36:09.398Z,99444.00
2023-01-31T01:38:37.071Z,99444.88
2023-01-31T01:41:04.571Z,99429.94
2023-01-31T01:43:46.628Z,99434.44
2023-01-31T01:46:24.429Z,99420.34
2023-01-31T01:48:54.853Z,99421.97
2023-01-31T01:51:22.137Z,99427.69
2023-01-31T01:53:53.432Z,99430.97
2023-01-31T01:56:25.586Z,99435.47
2023-01-31T01:58:58.564Z,99426.44
2023-01-31T02:01:28.770Z,99420.28
2023-01-31T02:03:55.662Z,99422.34
2023-01-31T02:06:22.549Z,99423.34
2023-01-31T02:08:49.645Z,99407.81
2023-01-31T02:11:19.265Z,99420.72
2023-01-31T02:13:47.161Z,99412.03
2023-01-31T02:16:17.031Z,99418.00
2023-01-31T02:18:44.714Z,99419.41
2023-01-31T02:21:36.244Z,99415.38
2023-01-31T02:24:11.907Z,99404.56
2023-01-31T02:27:23.687Z,99406.59
2023-01-31T02:30:05.680Z,99404.88
2023-01-31T02:32:46.876Z,99404.16
2023-01-31T02:35:39.161Z,99403.50
2023-01-31T02:38:12.789Z,99391.31
2023-01-31T02:41:17.049Z,99393.22
2023-01-31T02:44:26.546Z,99384.88
2023-01-31T02:46:56.035Z,99387.38
2023-01-31T02:49:36.912Z,99391.91
2023-01-31T02:52:50.811Z,99396.53
2023-01-31T02:55:47.454Z,99388.91
2023-01-31T02:58:16.791Z,99386.41
2023-01-31T03:00:45.685Z,99388.31
2023-01-31T03:03:20.272Z,99386.25
2023-01-31T03:06:23.099Z,99392.06
2023-01-31T03:08:56.353Z,99408.53
2023-01-31T03:11:27.197Z,99394.41
2023-01-31T03:14:05.604Z,99385.69
2023-01-31T03:16:56.197Z,99385.06
2023-01-31T03:19:36.783Z,99366.97
2023-01-31T03:22:19.426Z,99362.00
2023-01-31T03:24:48.252Z,99357.69
2023-01-31T03:27:16.733Z,99347.00
2023-01-31T03:29:47.475Z,99332.38
2023-01-31T03:32:14.188Z,99336.91
2023-01-31T03:34:40.934Z,99342.09
2023-01-31T03:37:17.865Z,99333.25
2023-01-31T03:40:00.339Z,99340.47
2023-01-31T03:42:37.782Z,99337.78
2023-01-31T03:45:09.623Z,99335.31
2023-01-31T03:47:39.245Z,99333.91
2023-01-31T03:50:13.956Z,99305.13
2023-01-31T03:52:46.082Z,99305.44
2023-01-31T03:55:41.748Z,99298.34
2023-01-31T03:58:11.055Z,99274.78
2023-01-31T04:00:42.246Z,99274.09
2023-01-31T04:03:58.793Z,99280.13
2023-01-31T04:06:27.484Z,99259.69
2023-01-31T04:08:55.051Z,99264.66
2023-01-31T04:11:25.433Z,99267.09
2023-01-31T04:13:52.380Z,99259.69
2023-01-31T04:16:19.161Z,99248.84
2023-01-31T04:18:46.089Z,99259.69
2023-01-31T04:21:15.356Z,99250.28
2023-01-31T04:23:42.203Z,99234.31
2023-01-31T04:26:08.979Z,99249.06
2023-01-31T04:28:35.784Z,99236.69
2023-01-31T04:31:02.598Z,99230.97
2023-01-31T04:33:29.661Z,99229.09
2023-01-31T04:35:56.560Z,99229.38
2023-01-31T04:38:23.400Z,99230.75
2023-01-31T04:40:50.304Z,99214.84
2023-01-31T04:43:17.402Z,99216.13
2023-01-31T04:45:44.700Z,99233.56
2023-01-31T04:48:11.521Z,99246.97
2023-01-31T04:50:38.291Z,99243.50
2023-01-31T04:53:05.330Z,99246.63
2023-01-31T04:55:32.171Z,99246.16
2023-01-31T04:57:58.918Z,99243.31
2023-01-31T05:00:25.659Z,99251.84
2023-01-31T05:02:53.237Z,99247.78
2023-01-31T05:05:21.026Z,99255.09
2023-01-31T05:07:47.933Z,99253.41
2023-01-31T05:10:14.684Z,99265.38
2023-01-31T05:12:41.557Z,99247.03
2023-01-31T05:15:11.210Z,99257.34
2023-01-31T05:17:38.497Z,99248.41
2023-01-31T05:20:06.489Z,99241.81
2023-01-31T05:22:33.982Z,99267.81
2023-01-31T05:25:00.698Z,99258.63
2023-01-31T05:27:27.669Z,99256.31
2023-01-31T05:29:54.722Z,99259.00
2023-01-31T05:32:21.765Z,99261.75
2023-01-31T05:34:48.466Z,99250.50
2023-01-31T05:37:15.348Z,99255.09
2023-01-31T05:39:42.258Z,99262.38
2023-01-31T05:42:09.106Z,99265.09
2023-01-31T05:44:35.863Z,99272.06
2023-01-31T05:47:02.701Z,99272.75
2023-01-31T05:49:33.471Z,99268.44
2023-01-31T05:52:00.859Z,99256.97
2023-01-31T05:54:27.932Z,99260.44
2023-01-31T05:56:54.735Z,99275.66
2023-01-31T05:59:21.522Z,99282.47
2023-01-31T06:01:48.337Z,99284.31
2023-01-31T06:04:15.124Z,99287.84
2023-01-31T06:06:42.644Z,99293.28
2023-01-31T06:09:09.452Z,99298.88
2023-01-31T06:11:36.371Z,99293.38
2023-01-31T06:14:03.373Z,99296.50
2023-01-31T06:16:30.151Z,99298.47
2023-01-31T06:18:57.685Z,99310.00
2023-01-31T06:21:24.649Z,99318.00
2023-01-31T06:23:51.425Z,99302.50
2023-01-31T06:26:18.415Z,99317.88
2023-01-31T06:28:46.332Z,99319.69
2023-01-31T06:31:13.559Z,99317.28
2023-01-31T06:33:46.957Z,99311.38
2023-01-31T06:36:18.579Z,99307.59
2023-01-31T06:38:50.117Z,99316.25
2023-01-31T06:41:17.068Z,99323.88
2023-01-31T06:43:43.852Z,99335.78
2023-01-31T06:46:10.748Z,99344.16
2023-01-31T06:48:37.497Z,99346.59
2023-01-31T06:51:05.068Z,99350.50
2023-01-31T06:53:31.951Z,99356.41
2023-01-31T06:55:58.844Z,99367.28
2023-01-31T06:58:25.612Z,99359.75
2023-01-31T07:00:52.462Z,99356.47
2023-01-31T07:03:19.626Z,99359.53
2023-01-31T07:05:46.979Z,99357.50
2023-01-31T07:08:14.696Z,99364.28
2023-01-31T07:10:41.652Z,99355.06
2023-01-31T07:13:08.398Z,99351.00
2023-01-31T07:15:35.238Z,99347.94
2023-01-31T07:18:02.323Z,99356.13
2023-01-31T07:20:29.247Z,99370.84
2023-01-31T07:22:57.295Z,99366.56
2023-01-31T07:25:25.007Z,99367.75
2023-01-31T07:27:51.826Z,99365.75
2023-01-31T07:30:19.038Z,99374.72
2023-01-31T07:32:45.978Z,99388.03
2023-01-31T07:35:12.774Z,99392.94
2023-01-31T07:37:40.768Z,99382.91
2023-01-31T07:40:08.322Z,99389.84
2023-01-31T07:42:35.107Z,99386.38
2023-01-31T07:45:13.262Z,99389.44
2023-01-31T07:47:49.481Z,99385.13
2023-01-31T07:50:16.633Z,99384.53
2023-01-31T07:52:43.422Z,99370.84
2023-01-31T07:55:10.398Z,99386.78
2023-01-31T07:57:37.204Z,99383.53
2023-01-31T08:00:24.850Z,99372.06
2023-01-31T08:03:10.332Z,99373.50
2023-01-31T08:05:37.416Z,99374.94
2023-01-31T08:08:13.366Z,99353.88
2023-01-31T08:10:40.694Z,99363.28
2023-01-31T08:13:07.499Z,99371.66
2023-01-31T08:15:34.424Z,99384.13
2023-01-31T08:18:01.800Z,99373.91
2023-01-31T08:20:30.626Z,99378.19
2023-01-31T08:23:00.285Z,99374.50
2023-01-31T08:25:29.413Z,99374.91
2023-01-31T08:28:00.341Z,99368.19
2023-01-31T08:30:27.480Z,99382.09
2023-01-31T08:32:54.414Z,99361.59
2023-01-31T08:35:21.793Z,99380.81
2023-01-31T08:37:48.890Z,99338.03
2023-01-31T08:40:15.889Z,99394.13
2023-01-31T08:42:42.872Z,99385.09
2023-01-31T08:45:10.470Z,99403.34
2023-01-31T08:47:38.860Z,99413.97
2023-01-31T08:50:10.953Z,99406.38
2023-01-31T08:52:42.627Z,99410.88
2023-01-31T08:55:13.741Z,99407.63
2023-01-31T08:57:57.685Z,99403.13
2023-01-31T09:00:25.966Z,99416.44
2023-01-31T09:02:54.010Z,99417.84
2023-01-31T09:05:22.005Z,99411.00
2023-01-31T09:07:48.905Z,99404.22
2023-01-31T09:10:15.732Z,99412.06
2023-01-31T09:12:42.439Z,99397.59
2023-01-31T09:15:09.572Z,99398.00
2023-01-31T09:17:36.402Z,99409.47
2023-01-31T09:20:06.701Z,99414.13
2023-01-31T09:22:34.704Z,99420.06
2023-01-31T09:25:02.029Z,99424.78
2023-01-31T09:27:29.736Z,99426.63
2023-01-31T09:29:56.631Z,99431.56
2023-01-31T09:32:23.394Z,99416.78
2023-01-31T09:34:50.294Z,99410.06
2023-01-31T09:37:17.367Z,99420.47
2023-01-31T09:39:44.176Z,99430.72
2023-01-31T09:42:32.037Z,99413.34
2023-01-31T09:45:01.022Z,99417.00
2023-01-31T09:47:32.213Z,99433.19
2023-01-31T09:50:04.459Z,99437.47
2023-01-31T09:52:33.141Z,99436.69
2023-01-31T09:55:00.222Z,99444.88
2023-01-31T09:57:41.147Z,99437.94
2023-01-31T10:00:18.001Z,99446.13
2023-01-31T10:02:47.753Z,99460.84
2023-01-31T10:05:36.281Z,99461.22
2023-01-31T10:08:25.001Z,99473.69
2023-01-31T10:10:53.000Z,99458.38
2023-01-31T10:13:35.514Z,99463.28
2023-01-31T10:16:14.452Z,99453.47
2023-01-31T10:18:45.727Z,99466.78
2023-01-31T10:21:19.022Z,99459.19
2023-01-31T10:24:05.969Z,99463.28
2023-01-31T10:26:35.248Z,99476.34
2023-01-31T10:29:29.659Z,99475.09
2023-01-31T10:32:00.059Z,99481.81
2023-01-31T10:34:34.842Z,99489.34
2023-01-31T10:37:06.859Z,99504.44
2023-01-31T10:39:37.557Z,99521.63
2023-01-31T10:42:15.780Z,99539.06
2023-01-31T10:45:01.282Z,99533.72
2023-01-31T10:47:33.235Z,99555.28
2023-01-31T10:50:00.157Z,99553.09
2023-01-31T10:52:57.563Z,99593.00
2023-01-31T10:55:38.892Z,99568.03
2023-01-31T10:58:15.335Z,99554.69
2023-01-31T11:00:42.340Z,99568.56
2023-01-31T11:03:12.152Z,99593.19
2023-01-31T11:05:50.209Z,99591.41
2023-01-31T11:08:37.409Z,99514.47
2023-01-31T11:11:09.891Z,99518.03
2023-01-31T11:13:37.564Z,99511.38
2023-01-31T11:16:08.330Z,99531.28
2023-01-31T11:18:44.945Z,99500.88
2023-01-31T11:21:39.455Z,99501.69
2023-01-31T11:24:16.396Z,99519.56
2023-01-31T11:27:09.028Z,99546.53
2023-01-31T11:29:44.844Z,99548.22
2023-01-31T11:32:23.886Z,99562.34
2023-01-31T11:35:01.096Z,99549.16
2023-01-31T11:37:30.753Z,99534.75
2023-01-31T11:40:03.217Z,99555.22
2023-01-31T11:42:30.192Z,99546.25
2023-01-31T11:45:05.482Z,99549.00
2023-01-31T11:47:42.876Z,99562.34
2023-01-31T11:50:27.431Z,99555.88
2023-01-31T11:52:57.372Z,99553.25
2023-01-31T11:55:24.422Z,99546.53
2023-01-31T11:57:59.083Z,99566.63
2023-01-31T12:00:27.727Z,99552.06
2023-01-31T12:03:08.942Z,99558.63
2023-01-31T12:05:43.224Z,99554.31
2023-01-31T12:08:33.713Z,99563.75
2023-01-31T12:11:06.518Z,99560.84
2023-01-31T12:13:49.815Z,99550.00
2023-01-31T12:16:25.931Z,99540.97
2023-01-31T12:19:01.849Z,99549.56
2023-01-31T12:21:56.532Z,99552.88
2023-01-31T12:24:23.295Z,99539.31
2023-01-31T12:26:56.634Z,99560.41
2023-01-31T12:29:43.780Z,99543.84
2023-01-31T12:33:12.254Z,99576.22
2023-01-31T12:36:01.592Z,99618.50
2023-01-31T12:38:46.928Z,99571.94
2023-01-31T12:41:22.038Z,99542.84
2023-01-31T12:43:51.650Z,99528.28
2023-01-31T12:46:54.771Z,99518.88
2023-01-31T12:49:46.642Z,99521.88
2023-01-31T12:52:29.161Z,99519.31
2023-01-31T12:55:01.836Z,99526.47
2023-01-31T12:57:34.156Z,99518.03
2023-01-31T13:00:10.065Z,99522.13
2023-01-31T13:02:46.127Z,99548.06
2023-01-31T13:05:29.710Z,99530.13
2023-01-31T13:08:07.176Z,99505.25
2023-01-31T13:10:36.624Z,99524.31
2023-01-31T13:13:05.830Z,99526.94
2023-01-31T13:15:51.721Z,99531.63
2023-01-31T13:18:19.805Z,99534.50
2023-01-31T13:20:57.276Z,99533.25
2023-01-31T13:23:31.778Z,99543.00
2023-01-31T13:26:08.026Z,99547.31
2023-01-31T13:28:40.937Z,99541.22
2023-01-31T13:31:25.788Z,99530.25
2023-01-31T13:33:58.678Z,99532.63
2023-01-31T13:36:39.250Z,99525.44
2023-01-31T13:39:22.202Z,99525.41
2023-01-31T13:41:49.087Z,99512.59
2023-01-31T13:44:17.491Z,99520.22
2023-01-31T13:46:52.480Z,99517.47
2023-01-31T13:50:00.241Z,99535.03
2023-01-31T13:52:31.398Z,99539.97
2023-01-31T13:55:01.362Z,99542.63
2023-01-31T13:57:38.096Z,99533.38
2023-01-31T14:00:27.073Z,99543.16
2023-01-31T14:03:18.000Z,99522.31
2023-01-31T14:05:44.877Z,99522.19
2023-01-31T14:08:31.896Z,99509.00
2023-01-31T14:11:01.598Z,99518.56
2023-01-31T14:13:34.180Z,99512.00
2023-01-31T14:16:02.013Z,99521.56
2023-01-31T14:18:55.243Z,99522.13
2023-01-31T14:21:31.230Z,99520.91
2023-01-31T14:24:04.133Z,99529.78
2023-01-31T14:26:54.376Z,99529.13
2023-01-31T14:29:23.824Z,99518.78
2023-01-31T14:31:52.062Z,99531.81
2023-01-31T14:34:22.812Z,99530.28
2023-01-31T14:36:58.633Z,99529.69
2023-01-31T14:39:28.126Z,99532.56
2023-01-31T14:42:07.037Z,99546.50
2023-01-31T14:44:49.453Z,99524.63
2023-01-31T14:47:28.412Z,99520.63
2023-01-31T14:50:13.720Z,99517.69
2023-01-31T14:53:05.353Z,99514.38
2023-01-31T14:55:44.325Z,99515.22
2023-01-31T14:58:22.077Z,99521.16
2023-01-31T15:00:58.564Z,99519.00
2023-01-31T15:03:31.860Z,99511.25
2023-01-31T15:06:31.213Z,99509.31
2023-01-31T15:09:16.278Z,99493.56
2023-01-31T15:11:51.012Z,99499.09
2023-01-31T15:14:45.251Z,99491.50
2023-01-31T15:17:34.533Z,99498.28
2023-01-31T15:20:14.923Z,99498.72
2023-01-31T15:22:42.840Z,99494.22
2023-01-31T15:25:27.309Z,99510.81
2023-01-31T15:27:56.049Z,99514.31
2023-01-31T15:30:23.666Z,99511.28
2023-01-31T15:33:18.450Z,99506.00
2023-01-31T15:36:23.919Z,99494.72
2023-01-31T15:38:51.782Z,99496.13
2023-01-31T15:41:24.289Z,99496.38
2023-01-31T15:43:53.821Z,99479.56
2023-01-31T15:46:32.192Z,99476.03
2023-01-31T15:49:00.167Z,99487.09
2023-01-31T15:51:27.959Z,99491.19
2023-01-31T15:54:06.563Z,99484.66
2023-01-31T15:56:39.536Z,99490.00
2023-01-31T15:59:12.180Z,99501.28
2023-01-31T16:01:39.121Z,99492.91
2023-01-31T16:04:06.193Z,99495.75
2023-01-31T16:06:35.212Z,99493.09
2023-01-31T16:09:03.925Z,99497.22
2023-01-31T16:11:33.893Z,99501.50
2023-01-31T16:14:04.025Z,99508.88
2023-01-31T16:16:31.393Z,99499.06
2023-01-31T16:18:59.812Z,99502.75
2023-01-31T16:21:34.012Z,99507.25
2023-01-31T16:24:21.371Z,99505.44
2023-01-31T16:26:57.141Z,99502.78
2023-01-31T16:29:32.294Z,99496.81
2023-01-31T16:31:59.186Z,99496.44
2023-01-31T16:34:35.161Z,99483.34
2023-01-31T16:37:04.321Z,99487.84
2023-01-31T16:39:39.780Z,99487.66
2023-01-31T16:42:23.746Z,99487.22
2023-01-31T16:44:51.271Z,99493.97
2023-01-31T16:47:36.036Z,99475.97
2023-01-31T16:50:42.855Z,99471.28
2023-01-31T16:53:21.949Z,99478.03
2023-01-31T16:56:14.266Z,99487.00
2023-01-31T16:58:59.356Z,99489.06
2023-01-31T17:01:26.245Z,99493.97
2023-01-31T17:04:17.214Z,99477.22
2023-01-31T17:06:49.170Z,99492.94
2023-01-31T17:09:20.006Z,99507.03
2023-01-31T17:11:47.173Z,99501.72
2023-01-31T17:14:13.996Z,99516.25
2023-01-31T17:16:40.845Z,99501.53
2023-01-31T17:19:07.742Z,99493.94
2023-01-31T17:21:39.880Z,99489.66
2023-01-31T17:24:13.751Z,99481.03
2023-01-31T17:26:40.716Z,99485.53
2023-01-31T17:29:07.564Z,99493.50
2023-01-31T17:31:34.815Z,99477.97
2023-01-31T17:34:01.813Z,99467.94
2023-01-31T17:36:28.654Z,99457.13
2023-01-31T17:38:55.743Z,99462.63
2023-01-31T17:41:25.763Z,99465.09
2023-01-31T17:43:52.663Z,99465.09
2023-01-31T17:46:19.856Z,99465.09
2023-01-31T17:48:46.774Z,99442.38
2023-01-31T17:51:14.606Z,99445.25
2023-01-31T17:53:49.576Z,99438.94
2023-01-31T17:56:18.086Z,99436.47
2023-01-31T17:58:44.870Z,99437.31
2023-01-31T18:01:13.968Z,99443.84
2023-01-31T18:03:41.771Z,99449.56
2023-01-31T18:06:09.393Z,99445.47
2023-01-31T18:08:36.283Z,99435.47
2023-01-31T18:11:12.645Z,99451.00
2023-01-31T18:13:39.846Z,99440.34
2023-01-31T18:16:18.244Z,99448.56
2023-01-31T18:18:45.233Z,99439.16
2023-01-31T18:21:18.031Z,99433.66
2023-01-31T18:23:50.074Z,99435.91
2023-01-31T18:26:17.846Z,99430.16
2023-01-31T18:28:46.372Z,99426.69
2023-01-31T18:31:15.177Z,99421.16
2023-01-31T18:33:43.804Z,99411.34
2023-01-31T18:36:15.689Z,99419.13
2023-01-31T18:38:43.790Z,99420.97
2023-01-31T18:41:14.491Z,99430.78
2023-01-31T18:43:42.656Z,99433.25
2023-01-31T18:46:10.306Z,99435.06
2023-01-31T18:48:39.041Z,99427.91
2023-01-31T18:51:08.060Z,99421.19
2023-01-31T18:53:36.533Z,99403.97
2023-01-31T18:56:08.604Z,99413.78
2023-01-31T18:58:38.026Z,99416.47
2023-01-31T19:01:12.529Z,99413.59
2023-01-31T19:03:40.547Z,99404.00
2023-01-31T19:06:14.816Z,99410.72
2023-01-31T19:08:42.353Z,99400.72
2023-01-31T19:11:11.563Z,99408.06
2023-01-31T19:13:39.269Z,99398.66
2023-01-31T19:16:11.396Z,99399.91
2023-01-31T19:18:38.324Z,99392.13
2023-01-31T19:21:19.098Z,99388.66
2023-01-31T19:23:46.517Z,99390.50
2023-01-31T19:26:14.225Z,99375.78
2023-01-31T19:28:41.128Z,99371.50
2023-01-31T19:31:09.939Z,99375.16
2023-01-31T19:33:37.004Z,99382.09
2023-01-31T19:36:15.703Z,99379.84
2023-01-31T19:38:43.015Z,99379.84
2023-01-31T19:41:14.951Z,99383.97
2023-01-31T19:43:42.474Z,99395.00
2023-01-31T19:46:09.797Z,99371.88
2023-01-31T19:48:36.857Z,99367.38
2023-01-31T19:51:08.636Z,99367.97
2023-01-31T19:53:35.979Z,99356.13
2023-01-31T19:56:03.531Z,99367.56
2023-01-31T19:58:33.688Z,99366.16
2023-01-31T20:01:05.942Z,99356.72
2023-01-31T20:03:33.206Z,99351.59
2023-01-31T20:06:12.188Z,99365.91
2023-01-31T20:08:39.402Z,99353.66
2023-01-31T20:11:08.755Z,99351.44
2023-01-31T20:13:36.271Z,99347.34
2023-01-31T20:16:08.130Z,99351.03
2023-01-31T20:18:36.145Z,99344.91
2023-01-31T20:21:03.619Z,99334.28
2023-01-31T20:23:30.628Z,99330.97
2023-01-31T20:25:58.073Z,99342.63
2023-01-31T20:28:25.697Z,99337.94
2023-01-31T20:30:52.922Z,99327.13
2023-01-31T20:33:20.263Z,99312.38
2023-01-31T20:35:47.706Z,99315.28
2023-01-31T20:38:17.248Z,99317.91
2023-01-31T20:40:52.795Z,99305.66
2023-01-31T20:43:21.166Z,99300.94
2023-01-31T20:45:48.171Z,99309.13
2023-01-31T20:48:15.018Z,99298.28
2023-01-31T20:50:41.750Z,99307.28
2023-01-31T20:53:18.603Z,99300.94
2023-01-31T20:55:59.486Z,99295.63
2023-01-31T20:58:27.452Z,99291.31
2023-01-31T21:00:55.397Z,99277.66
2023-01-31T21:03:23.379Z,99278.66
2023-01-31T21:05:50.802Z,99272.53
2023-01-31T21:08:18.399Z,99271.31
2023-01-31T21:10:56.523Z,99277.66
2023-01-31T21:13:25.112Z,99270.50
2023-01-31T21:15:56.805Z,99255.38
2023-01-31T21:18:26.995Z,99246.38
2023-01-31T21:20:54.035Z,99245.34
2023-01-31T21:23:20.790Z,99240.47
2023-01-31T21:25:47.626Z,99241.50
2023-01-31T21:28:14.451Z,99236.34
2023-01-31T21:30:41.501Z,99246.78
2023-01-31T21:33:08.683Z,99244.94
2023-01-31T21:35:35.427Z,99233.47
2023-01-31T21:38:02.189Z,99227.75
2023-01-31T21:40:28.954Z,99235.25
2023-01-31T21:42:55.836Z,99224.63
2023-01-31T21:45:39.880Z,99216.22
2023-01-31T21:48:28.201Z,99229.34
2023-01-31T21:50:56.032Z,99216.22
2023-01-31T21:53:24.005Z,99218.72
2023-01-31T21:55:59.653Z,99202.34
2023-01-31T21:58:26.667Z,99210.09
2023-01-31T22:00:53.472Z,99225.22
2023-01-31T22:03:20.307Z,99220.56
2023-01-31T22:05:47.075Z,99212.38
2023-01-31T22:08:13.861Z,99212.78
2023-01-31T22:10:40.616Z,99204.59
2023-01-31T22:13:10.795Z,99227.28
2023-01-31T22:15:37.589Z,99224.19
2023-01-31T22:18:04.645Z,99217.63
2023-01-31T22:20:31.478Z,99215.78
2023-01-31T22:22:58.225Z,99214.34
2023-01-31T22:25:25.053Z,99214.97
2023-01-31T22:27:52.120Z,99218.03
2023-01-31T22:30:19.011Z,99217.81
2023-01-31T22:32:45.809Z,99219.25
2023-01-31T22:35:12.649Z,99204.34
2023-01-31T22:37:39.389Z,99223.94
2023-01-31T22:40:06.560Z,99217.00
2023-01-31T22:42:33.299Z,99223.34
2023-01-31T22:45:00.151Z,99228.03
2023-01-31T22:47:26.974Z,99221.50
2023-01-31T22:49:53.771Z,99239.06
2023-01-31T22:52:20.590Z,99232.69
2023-01-31T22:54:47.709Z,99254.97
2023-01-31T22:57:15.891Z,99266.38
2023-01-31T22:59:42.709Z,99261.44
2023-01-31T23:02:09.461Z,99262.91
2023-01-31T23:04:36.309Z,99249.44
2023-01-31T23:07:03.066Z,99246.19
2023-01-31T23:09:30.011Z,99239.44
2023-01-31T23:11:56.798Z,99230.44
2023-01-31T23:14:23.578Z,99228.88
2023-01-31T23:17:08.928Z,99236.47
2023-01-31T23:19:36.055Z,99236.47
2023-01-31T23:22:03.515Z,99245.47
2023-01-31T23:24:30.287Z,99243.63
2023-01-31T23:26:57.689Z,99254.47
2023-01-31T23:29:24.465Z,99247.53
2023-01-31T23:31:51.259Z,99236.41
2023-01-31T23:34:18.029Z,99238.69
2023-01-31T23:36:44.740Z,99234.19
2023-01-31T23:39:11.665Z,99241.13
2023-01-31T23:41:38.412Z,99245.63
2023-01-31T23:44:05.350Z,99255.03
2023-01-31T23:46:32.458Z,99245.44
2023-01-31T23:48:59.340Z,99267.13
2023-01-31T23:51:28.552Z,99277.97
2023-01-31T23:53:55.423Z,99274.88
2023-01-31T23:56:22.201Z,99282.88
2023-01-31T23:58:48.989Z,99273.88
